Time;durP1;ratioP1;P1;durP2;ratioP2;P2;SDS_P1;SDS_P2;PMS_P1;PMS_P2;Temp;Humidity;BMP_temperature;BMP_pressure;BME280_temperature;BME280_humidity;BME280_pressure;Samples;Min_cycle;Max_cycle;Signal;HPM_P1;HPM_P2
2020/12/04 00:02:05;;;;;;;12.82;7.50;;;5.60;96.70;;;;;;5043754;28;20287;-82
2020/12/04 00:04:33;;;;;;;11.77;6.68;;;5.60;96.70;;;;;;5025867;28;20040;-81
2020/12/04 00:07:00;;;;;;;9.40;6.95;;;5.60;96.70;;;;;;5041785;28;20045;-82
2020/12/04 00:09:28;;;;;;;8.18;5.93;;;5.70;96.70;;;;;;5040996;28;20053;-82
2020/12/04 00:11:55;;;;;;;9.82;5.85;;;5.70;96.70;;;;;;5042662;28;20041;-82
2020/12/04 00:14:22;;;;;;;9.82;5.80;;;5.70;96.70;;;;;;5041007;28;20037;-82
2020/12/04 00:16:49;;;;;;;9.45;5.40;;;5.70;96.70;;;;;;5026254;28;20498;-82
2020/12/04 00:19:16;;;;;;;6.38;4.78;;;5.70;96.70;;;;;;5039839;28;20039;-82
2020/12/04 00:21:49;;;;;;;6.90;4.95;;;5.70;96.70;;;;;;5040128;28;20043;-82
2020/12/04 00:24:17;;;;;;;8.05;5.03;;;5.70;96.70;;;;;;5041238;28;20044;-82
2020/12/04 00:26:44;;;;;;;8.07;4.78;;;5.70;96.70;;;;;;5041371;28;20479;-82
2020/12/04 00:29:11;;;;;;;11.73;5.15;;;5.70;96.70;;;;;;5041215;28;20049;-81
2020/12/04 00:31:39;;;;;;;8.13;4.88;;;5.70;96.70;;;;;;5037579;28;20041;-81
2020/12/04 00:34:07;;;;;;;9.15;4.95;;;5.70;96.70;;;;;;5039394;28;20041;-81
2020/12/04 00:36:35;;;;;;;14.45;5.03;;;5.60;96.70;;;;;;5040400;28;20110;-82
2020/12/04 00:39:03;;;;;;;14.27;4.75;;;5.60;96.70;;;;;;5024485;28;20429;-82
2020/12/04 00:41:31;;;;;;;6.30;4.90;;;5.60;96.70;;;;;;5039374;28;20044;-80
2020/12/04 00:43:58;;;;;;;24.92;5.05;;;5.60;96.70;;;;;;5044700;28;20092;-81
2020/12/04 00:46:25;;;;;;;7.53;4.78;;;5.50;96.70;;;;;;5040800;28;20406;-78
2020/12/04 00:48:52;;;;;;;6.70;4.72;;;5.60;96.70;;;;;;5023160;28;20045;-78
2020/12/04 00:51:20;;;;;;;13.57;4.90;;;5.60;96.70;;;;;;5040113;28;20033;-80
2020/12/04 00:53:50;;;;;;;11.60;4.70;;;5.60;96.70;;;;;;5041389;28;20185;-80
2020/12/04 00:56:21;;;;;;;13.52;4.95;;;5.60;96.70;;;;;;5040328;28;20123;-80
2020/12/04 00:58:50;;;;;;;11.93;4.88;;;5.50;96.70;;;;;;5039191;28;20041;-81
2020/12/04 01:01:17;;;;;;;12.70;5.18;;;5.50;96.70;;;;;;5035284;28;20537;-81
2020/12/04 01:03:44;;;;;;;7.45;5.20;;;5.40;96.70;;;;;;5041088;28;20481;-82
2020/12/04 01:06:12;;;;;;;8.00;5.20;;;5.40;96.70;;;;;;5023057;28;20494;-82
2020/12/04 01:08:41;;;;;;;8.50;4.68;;;5.40;96.70;;;;;;5024867;28;20049;-80
2020/12/04 01:11:08;;;;;;;7.20;5.65;;;5.60;96.70;;;;;;5040254;28;20037;-82
2020/12/04 01:13:36;;;;;;;15.05;5.65;;;5.60;96.70;;;;;;5041140;28;20041;-82
2020/12/04 01:16:03;;;;;;;12.95;6.05;;;5.60;96.70;;;;;;5039367;28;20063;-82
2020/12/04 01:18:30;;;;;;;12.90;5.80;;;5.60;96.70;;;;;;5040064;28;20053;-81
2020/12/04 01:20:58;;;;;;;10.25;5.15;;;5.70;96.70;;;;;;5054553;28;20247;-81
2020/12/04 01:23:25;;;;;;;8.40;6.00;;;5.60;96.70;;;;;;5040551;28;20037;-81
2020/12/04 01:25:52;;;;;;;14.25;6.47;;;5.70;96.70;;;;;;5039089;28;20946;-81
2020/12/04 01:28:19;;;;;;;10.75;5.72;;;5.70;96.70;;;;;;5043307;28;20360;-81
2020/12/04 01:30:47;;;;;;;8.75;6.00;;;5.70;96.70;;;;;;5023499;28;20267;-81
2020/12/04 01:33:15;;;;;;;11.98;5.68;;;5.70;96.70;;;;;;5040783;28;20118;-81
2020/12/04 01:35:42;;;;;;;12.57;6.22;;;5.80;96.70;;;;;;5037393;28;20096;-81
2020/12/04 01:38:09;;;;;;;13.55;5.65;;;5.80;96.70;;;;;;5041806;28;20053;-81
2020/12/04 01:40:36;;;;;;;8.93;6.07;;;5.80;96.70;;;;;;5055449;28;20127;-81
2020/12/04 01:43:03;;;;;;;9.35;5.50;;;5.90;96.70;;;;;;5039523;28;20040;-82
2020/12/04 01:45:35;;;;;;;7.43;5.20;;;5.90;96.70;;;;;;5039721;28;20455;-82
2020/12/04 01:48:03;;;;;;;10.60;5.50;;;6.00;96.70;;;;;;5040806;28;20029;-81
2020/12/04 01:50:30;;;;;;;14.82;6.00;;;6.00;96.70;;;;;;5023780;28;20099;-81
2020/12/04 01:52:58;;;;;;;10.98;6.60;;;6.00;96.70;;;;;;5039751;28;20057;-82
2020/12/04 01:55:26;;;;;;;8.75;5.28;;;5.90;96.70;;;;;;5040727;28;20045;-82
2020/12/04 01:57:53;;;;;;;8.98;5.85;;;6.00;96.70;;;;;;5041030;28;20067;-81
2020/12/04 02:00:21;;;;;;;7.43;5.32;;;6.00;96.70;;;;;;5059380;28;20039;-82
2020/12/04 02:02:48;;;;;;;12.75;5.78;;;6.00;96.70;;;;;;5044730;28;20056;-81
2020/12/04 02:05:17;;;;;;;9.75;6.22;;;5.90;96.70;;;;;;5043311;28;20154;-82
2020/12/04 02:07:50;;;;;;;8.82;5.05;;;6.00;96.70;;;;;;5027912;28;20167;-81
2020/12/04 02:10:21;;;;;;;7.47;5.75;;;6.00;96.70;;;;;;5060534;28;20493;-81
2020/12/04 02:12:49;;;;;;;6.35;4.47;;;6.00;96.70;;;;;;5045054;28;20393;-81
2020/12/04 02:15:18;;;;;;;7.13;5.03;;;6.10;96.70;;;;;;5044114;28;20563;-82
2020/12/04 02:17:46;;;;;;;6.75;4.55;;;6.00;96.70;;;;;;5046087;28;20136;-81
2020/12/04 02:20:13;;;;;;;7.57;4.93;;;5.90;96.70;;;;;;5045321;28;20457;-81
2020/12/04 02:22:42;;;;;;;6.93;5.18;;;6.00;96.70;;;;;;5042127;28;20049;-82
2020/12/04 02:25:10;;;;;;;9.18;4.80;;;6.10;96.70;;;;;;5044360;28;20120;-82
2020/12/04 02:27:45;;;;;;;7.30;4.82;;;6.20;96.70;;;;;;5056557;28;20147;-81
2020/12/04 02:30:17;;;;;;;7.43;4.88;;;6.10;96.70;;;;;;5043459;28;20071;-81
2020/12/04 02:32:44;;;;;;;9.07;4.35;;;6.10;96.70;;;;;;5039588;28;20383;-82
2020/12/04 02:35:11;;;;;;;8.02;4.38;;;6.20;96.70;;;;;;5026381;28;20130;-81
2020/12/04 02:37:38;;;;;;;6.03;4.53;;;6.20;96.70;;;;;;5039994;28;20052;-82
2020/12/04 02:40:06;;;;;;;5.95;4.47;;;6.20;96.70;;;;;;5044902;28;20122;-82
2020/12/04 02:42:33;;;;;;;6.85;4.70;;;6.20;96.70;;;;;;5042608;28;20049;-81
2020/12/04 02:45:00;;;;;;;5.93;4.40;;;6.20;96.70;;;;;;5026328;28;20041;-81
2020/12/04 02:47:28;;;;;;;5.97;4.85;;;6.20;96.70;;;;;;5042828;28;20289;-81
2020/12/04 02:49:56;;;;;;;6.72;5.32;;;6.30;96.70;;;;;;5043984;28;20782;-82
2020/12/04 02:52:25;;;;;;;6.90;4.75;;;6.30;96.70;;;;;;5043795;28;20064;-81
2020/12/04 02:54:52;;;;;;;6.25;4.78;;;6.40;96.70;;;;;;5041335;28;20396;-81
2020/12/04 02:57:21;;;;;;;7.25;5.13;;;6.30;96.70;;;;;;5027584;28;20075;-81
2020/12/04 02:59:48;;;;;;;6.38;5.03;;;6.40;96.70;;;;;;5025850;28;20051;-81
2020/12/04 03:02:15;;;;;;;8.43;5.55;;;6.40;96.70;;;;;;5043317;28;20041;-81
2020/12/04 03:04:43;;;;;;;7.38;5.38;;;6.40;96.70;;;;;;5022771;28;20040;-81
2020/12/04 03:07:11;;;;;;;8.48;5.03;;;6.40;96.70;;;;;;5025668;28;20065;-81
2020/12/04 03:09:38;;;;;;;7.95;6.53;;;6.40;96.70;;;;;;5057861;28;20135;-81
2020/12/04 03:12:05;;;;;;;8.15;5.05;;;6.40;96.70;;;;;;5057983;28;20040;-81
2020/12/04 03:14:33;;;;;;;8.23;4.65;;;6.40;96.70;;;;;;5024474;28;20041;-81
2020/12/04 03:17:00;;;;;;;7.60;5.68;;;6.40;96.70;;;;;;5056532;28;20479;-81
2020/12/04 03:19:27;;;;;;;6.90;5.10;;;6.30;96.70;;;;;;5042245;28;20047;-81
2020/12/04 03:22:01;;;;;;;7.85;5.03;;;6.40;96.70;;;;;;5030991;28;20075;-82
2020/12/04 03:24:33;;;;;;;8.80;5.40;;;6.40;96.70;;;;;;5064192;28;20739;-81
2020/12/04 03:27:02;;;;;;;8.23;4.97;;;6.40;96.70;;;;;;5026728;28;20059;-81
2020/12/04 03:29:29;;;;;;;8.27;6.35;;;6.40;96.70;;;;;;5043083;28;20495;-83
2020/12/04 03:32:00;;;;;;;10.13;6.03;;;6.40;96.70;;;;;;5044741;28;20040;-82
2020/12/04 03:34:27;;;;;;;8.98;5.72;;;6.40;96.70;;;;;;5041063;28;20037;-82
2020/12/04 03:37:08;;;;;;;7.93;5.45;;;6.50;96.70;;;;;;5032239;28;20140;-83
2020/12/04 03:39:52;;;;;;;7.10;5.25;;;6.50;96.70;;;;;;5053944;28;20045;-85
2020/12/04 03:42:32;;;;;;;8.75;6.03;;;6.50;96.70;;;;;;5055272;28;20037;-81
2020/12/04 03:45:05;;;;;;;8.27;5.85;;;6.50;96.70;;;;;;5040238;28;20096;-81
2020/12/04 03:47:40;;;;;;;8.63;5.80;;;6.50;96.70;;;;;;5042733;28;20052;-83
2020/12/04 03:50:12;;;;;;;9.85;6.30;;;6.50;96.70;;;;;;5040883;28;20102;-82
2020/12/04 03:52:39;;;;;;;9.98;6.40;;;6.50;96.70;;;;;;5043009;28;20045;-82
2020/12/04 03:55:07;;;;;;;8.82;6.15;;;6.60;96.70;;;;;;5041667;28;20061;-82
2020/12/04 03:57:34;;;;;;;8.95;5.32;;;6.60;96.70;;;;;;5042884;28;20041;-82
2020/12/04 04:00:01;;;;;;;8.52;5.95;;;6.60;96.70;;;;;;5024493;28;20044;-83
2020/12/04 04:02:39;;;;;;;8.63;5.60;;;6.60;96.70;;;;;;5043405;28;20478;-82
2020/12/04 04:05:07;;;;;;;8.13;5.55;;;6.70;96.70;;;;;;5058558;28;20103;-82
2020/12/04 04:07:35;;;;;;;7.15;4.88;;;6.70;96.70;;;;;;5042101;28;20099;-82
2020/12/04 04:10:03;;;;;;;7.47;5.30;;;6.70;96.70;;;;;;5040969;28;20124;-82
2020/12/04 04:12:31;;;;;;;6.80;4.72;;;6.70;96.70;;;;;;5023420;28;20041;-82
2020/12/04 04:14:58;;;;;;;8.10;4.93;;;6.70;96.70;;;;;;5038149;28;20060;-82
2020/12/04 04:17:25;;;;;;;6.55;4.60;;;6.70;96.70;;;;;;5042092;28;20559;-82
2020/12/04 04:19:53;;;;;;;7.55;5.15;;;6.70;96.70;;;;;;5042613;28;20049;-82
2020/12/04 04:22:21;;;;;;;5.00;3.97;;;6.70;96.70;;;;;;5056521;28;20029;-82
2020/12/04 04:24:49;;;;;;;5.40;4.10;;;6.70;96.70;;;;;;5041374;28;20037;-82
2020/12/04 04:27:16;;;;;;;5.82;4.43;;;6.60;96.70;;;;;;5024813;28;20155;-82
2020/12/04 04:29:43;;;;;;;5.65;4.20;;;6.60;96.70;;;;;;5042045;28;20122;-82
2020/12/04 04:32:10;;;;;;;6.32;3.95;;;6.60;96.70;;;;;;5023008;28;20040;-82
2020/12/04 04:34:37;;;;;;;5.22;3.58;;;6.60;96.70;;;;;;5040956;28;20758;-82
2020/12/04 04:37:05;;;;;;;6.40;4.82;;;6.60;96.70;;;;;;5024426;28;20322;-82
2020/12/04 04:39:32;;;;;;;5.50;4.10;;;6.50;96.70;;;;;;5042334;28;20507;-82
2020/12/04 04:41:59;;;;;;;4.07;3.45;;;6.50;96.70;;;;;;5023444;28;20343;-82
2020/12/04 04:44:27;;;;;;;5.47;3.85;;;6.50;96.70;;;;;;5040322;28;20069;-83
2020/12/04 04:47:03;;;;;;;4.68;3.95;;;6.50;96.70;;;;;;5022850;28;20149;-82
2020/12/04 04:49:40;;;;;;;6.40;4.57;;;6.50;96.70;;;;;;5041644;28;20037;-82
2020/12/04 04:52:09;;;;;;;6.20;4.35;;;6.50;96.70;;;;;;5036485;28;20064;-83
2020/12/04 04:54:45;;;;;;;4.72;4.20;;;6.50;96.70;;;;;;5040301;28;20037;-81
2020/12/04 04:57:13;;;;;;;5.90;3.90;;;6.40;96.70;;;;;;5039907;28;20041;-82
2020/12/04 04:59:40;;;;;;;6.20;3.80;;;6.40;96.70;;;;;;5036983;28;20099;-81
2020/12/04 05:02:11;;;;;;;6.55;4.28;;;6.40;96.70;;;;;;5040628;28;20051;-81
2020/12/04 05:04:54;;;;;;;5.22;4.10;;;6.50;96.70;;;;;;5055215;28;20447;-82
2020/12/04 05:07:28;;;;;;;5.00;4.22;;;6.50;96.70;;;;;;5040406;28;20045;-81
2020/12/04 05:10:09;;;;;;;4.88;4.13;;;6.50;96.70;;;;;;5040352;28;20037;-81
2020/12/04 05:12:36;;;;;;;4.97;4.20;;;6.40;96.70;;;;;;5037732;28;20426;-82
2020/12/04 05:15:19;;;;;;;5.25;3.97;;;6.50;96.70;;;;;;5041048;28;20037;-81
2020/12/04 05:18:03;;;;;;;5.97;3.83;;;6.40;96.70;;;;;;5039996;28;20045;-81
2020/12/04 05:20:30;;;;;;;4.30;3.67;;;6.40;96.70;;;;;;5039518;28;20517;-82
2020/12/04 05:22:58;;;;;;;5.63;4.40;;;6.40;96.70;;;;;;5040658;28;20806;-82
2020/12/04 05:25:25;;;;;;;5.05;4.00;;;6.40;96.70;;;;;;5040347;28;20040;-82
2020/12/04 05:27:53;;;;;;;5.93;3.80;;;6.40;96.70;;;;;;5026464;28;20315;-82
2020/12/04 05:30:24;;;;;;;5.32;4.03;;;6.40;96.70;;;;;;5039949;28;20118;-82
2020/12/04 05:32:59;;;;;;;5.68;4.38;;;6.40;96.70;;;;;;5040143;28;20037;-82
2020/12/04 05:35:27;;;;;;;4.80;4.07;;;6.40;96.70;;;;;;5038954;28;20550;-82
2020/12/04 05:38:11;;;;;;;6.38;4.38;;;6.40;96.70;;;;;;5025342;28;20044;-83
2020/12/04 05:40:40;;;;;;;7.72;4.25;;;6.40;96.70;;;;;;5041632;28;20083;-82
2020/12/04 05:43:08;;;;;;;5.38;4.32;;;6.30;96.70;;;;;;5037734;28;20040;-82
2020/12/04 05:45:36;;;;;;;6.53;4.65;;;6.30;96.70;;;;;;5039219;28;20056;-82
2020/12/04 05:48:12;;;;;;;5.93;4.68;;;6.30;96.70;;;;;;5039547;28;20730;-82
2020/12/04 05:50:40;;;;;;;5.80;4.25;;;6.30;96.70;;;;;;5039735;28;20049;-82
2020/12/04 05:53:10;;;;;;;7.68;4.72;;;6.30;96.70;;;;;;5040467;28;20123;-82
2020/12/04 05:55:39;;;;;;;5.70;4.32;;;6.20;96.70;;;;;;5056007;28;20385;-82
2020/12/04 05:58:11;;;;;;;6.25;4.50;;;6.20;96.70;;;;;;5023713;28;20087;-81
2020/12/04 06:00:39;;;;;;;6.45;4.65;;;6.20;96.70;;;;;;5025481;28;20406;-81
2020/12/04 06:03:06;;;;;;;7.80;5.22;;;6.20;96.70;;;;;;5040267;28;20048;-81
2020/12/04 06:05:33;;;;;;;5.53;4.78;;;6.20;96.70;;;;;;5038694;28;20041;-81
2020/12/04 06:08:02;;;;;;;7.65;4.85;;;6.20;96.70;;;;;;5040277;28;20041;-80
2020/12/04 06:10:32;;;;;;;8.32;5.00;;;6.20;96.70;;;;;;5040232;28;20045;-81
2020/12/04 06:13:00;;;;;;;6.90;4.55;;;6.20;96.70;;;;;;5021894;28;20261;-81
2020/12/04 06:15:33;;;;;;;6.82;4.93;;;6.20;96.70;;;;;;5055120;28;20048;-81
2020/12/04 06:18:03;;;;;;;6.05;4.80;;;6.20;96.70;;;;;;5038792;28;20522;-82
2020/12/04 06:20:40;;;;;;;7.93;4.97;;;6.30;96.70;;;;;;5037557;28;20355;-81
2020/12/04 06:23:10;;;;;;;6.80;4.90;;;6.30;96.70;;;;;;5055850;28;20049;-82
2020/12/04 06:25:57;;;;;;;5.57;4.47;;;6.30;96.70;;;;;;5039093;28;20060;-82
2020/12/04 06:28:26;;;;;;;8.45;5.03;;;6.30;96.70;;;;;;5042079;28;20115;-82
2020/12/04 06:31:09;;;;;;;6.15;4.80;;;6.30;96.70;;;;;;5039482;28;20501;-82
2020/12/04 06:33:40;;;;;;;5.90;4.70;;;6.30;96.70;;;;;;5039043;28;20048;-82
2020/12/04 06:36:09;;;;;;;7.18;4.45;;;6.30;96.70;;;;;;5052996;28;20033;-81
2020/12/04 06:38:46;;;;;;;6.40;4.50;;;6.30;96.70;;;;;;5039606;28;20052;-82
2020/12/04 06:41:24;;;;;;;6.03;4.50;;;6.30;96.70;;;;;;5036532;28;20051;-82
2020/12/04 06:43:53;;;;;;;6.50;4.85;;;6.30;96.70;;;;;;5055975;28;20501;-82
2020/12/04 06:46:37;;;;;;;6.35;4.60;;;6.30;96.70;;;;;;5042232;28;20049;-82
2020/12/04 06:51:59;;;;;;;6.88;4.55;;;6.30;96.70;;;;;;5044136;28;20037;-82
2020/12/04 06:54:27;;;;;;;6.80;4.50;;;6.40;96.70;;;;;;5043965;28;20103;-81
2020/12/04 06:56:57;;;;;;;6.80;4.50;;;6.40;96.70;;;;;;5043135;28;20052;-82
2020/12/04 06:59:28;;;;;;;5.82;4.40;;;6.40;96.70;;;;;;5043467;28;20074;-82
2020/12/04 07:02:01;;;;;;;5.63;4.20;;;6.40;96.70;;;;;;5042463;28;20041;-83
2020/12/04 07:04:29;;;;;;;5.03;4.18;;;6.50;96.70;;;;;;5024205;28;20042;-82
2020/12/04 07:07:07;;;;;;;7.38;4.75;;;6.50;96.70;;;;;;5043228;28;20138;-82
2020/12/04 07:09:35;;;;;;;4.43;3.80;;;6.50;96.70;;;;;;5026855;28;20048;-82
2020/12/04 07:12:04;;;;;;;6.47;4.07;;;6.60;96.70;;;;;;5025869;28;20041;-81
2020/12/04 07:14:32;;;;;;;7.22;4.82;;;6.60;96.70;;;;;;5056749;28;20046;-82
2020/12/04 07:16:59;;;;;;;5.43;4.13;;;6.60;96.70;;;;;;5044690;28;20037;-82
2020/12/04 07:19:27;;;;;;;5.75;3.97;;;6.60;96.70;;;;;;5040871;28;20060;-81
2020/12/04 07:21:55;;;;;;;5.68;4.00;;;6.70;96.70;;;;;;5024677;28;20060;-81
2020/12/04 07:24:22;;;;;;;5.40;4.22;;;6.60;96.70;;;;;;5038737;28;20047;-81
2020/12/04 07:26:52;;;;;;;5.93;4.35;;;6.70;96.70;;;;;;5059251;28;20038;-80
2020/12/04 07:29:21;;;;;;;6.22;4.40;;;6.70;96.70;;;;;;5039156;28;20086;-81
2020/12/04 07:31:49;;;;;;;7.00;4.90;;;6.70;96.70;;;;;;5022277;28;20044;-81
2020/12/04 07:34:21;;;;;;;6.13;4.40;;;6.80;96.70;;;;;;5051560;28;20053;-81
2020/12/04 07:36:51;;;;;;;8.65;4.50;;;6.80;96.70;;;;;;5039824;28;20134;-81
2020/12/04 07:39:28;;;;;;;5.82;4.07;;;6.90;96.70;;;;;;5043037;28;20048;-81
2020/12/04 07:41:57;;;;;;;5.95;4.53;;;6.90;96.70;;;;;;5041728;28;20107;-81
2020/12/04 07:44:30;;;;;;;7.75;5.00;;;7.00;96.70;;;;;;5057427;28;20525;-81
2020/12/04 07:47:02;;;;;;;6.70;4.70;;;7.00;96.70;;;;;;5040737;28;20048;-80
2020/12/04 07:49:31;;;;;;;7.05;5.43;;;7.10;96.70;;;;;;5041635;28;20831;-80
2020/12/04 07:52:14;;;;;;;7.03;5.20;;;7.10;96.70;;;;;;5039023;28;20094;-81
2020/12/04 07:54:45;;;;;;;6.70;5.07;;;7.10;96.70;;;;;;5043510;28;20049;-81
2020/12/04 07:57:13;;;;;;;6.75;4.85;;;7.20;96.70;;;;;;5040754;28;20122;-81
2020/12/04 07:59:45;;;;;;;6.28;5.00;;;7.20;96.70;;;;;;5053313;28;20036;-80
2020/12/04 08:02:22;;;;;;;7.80;5.07;;;7.20;96.70;;;;;;5042548;28;20410;-81
2020/12/04 08:04:50;;;;;;;5.95;4.38;;;7.20;96.70;;;;;;5056555;28;20044;-80
2020/12/04 08:07:18;;;;;;;6.65;4.95;;;7.30;96.70;;;;;;5023112;28;20037;-80
2020/12/04 08:09:46;;;;;;;6.78;5.13;;;7.30;96.70;;;;;;5041173;28;20033;-81
2020/12/04 08:12:17;;;;;;;6.10;5.25;;;7.40;96.70;;;;;;5042412;28;20043;-80
2020/12/04 08:14:54;;;;;;;6.90;5.03;;;7.40;96.70;;;;;;5040475;28;20040;-81
2020/12/04 08:17:24;;;;;;;6.47;5.45;;;7.40;96.70;;;;;;5020755;28;20207;-80
2020/12/04 08:19:52;;;;;;;7.25;4.80;;;7.40;96.70;;;;;;5040774;28;20080;-82
2020/12/04 08:22:28;;;;;;;6.47;5.25;;;7.50;96.70;;;;;;5041633;28;20501;-80
2020/12/04 08:27:40;;;;;;;7.38;5.20;;;7.60;96.70;;;;;;5024405;28;20040;-81
2020/12/04 08:30:15;;;;;;;6.68;5.07;;;7.60;96.70;;;;;;5039578;28;20153;-81
2020/12/04 08:32:43;;;;;;;6.97;4.70;;;7.70;96.70;;;;;;5039471;28;20037;-81
2020/12/04 08:35:14;;;;;;;6.88;5.10;;;7.70;96.70;;;;;;5037648;28;20121;-81
2020/12/04 08:37:42;;;;;;;7.30;5.30;;;7.70;96.70;;;;;;5043749;28;20558;-81
2020/12/04 08:40:25;;;;;;;6.45;5.03;;;7.70;96.70;;;;;;5039369;28;20067;-81
2020/12/04 08:42:54;;;;;;;6.07;4.93;;;7.80;96.70;;;;;;5040256;28;20044;-80
2020/12/04 08:45:27;;;;;;;7.43;5.38;;;7.80;96.70;;;;;;5038806;28;20037;-79
2020/12/04 08:48:06;;;;;;;6.95;4.95;;;7.80;96.70;;;;;;5037806;28;20068;-79
2020/12/04 08:50:40;;;;;;;6.78;5.13;;;7.90;96.70;;;;;;5041323;28;20057;-79
2020/12/04 08:53:09;;;;;;;7.25;4.80;;;8.00;96.70;;;;;;5054570;28;20051;-78
2020/12/04 08:55:37;;;;;;;5.75;4.40;;;8.00;96.70;;;;;;5021714;28;20079;-80
2020/12/04 08:58:04;;;;;;;6.85;4.22;;;8.00;96.70;;;;;;5038300;28;20045;-82
2020/12/04 09:00:33;;;;;;;6.72;4.63;;;8.00;96.70;;;;;;5022565;28;20099;-81
2020/12/04 09:03:01;;;;;;;6.88;5.35;;;8.00;96.70;;;;;;5039194;28;20037;-83
2020/12/04 09:05:30;;;;;;;7.07;5.07;;;7.90;96.70;;;;;;5022159;28;20068;-80
2020/12/04 09:07:57;;;;;;;6.72;4.78;;;7.90;96.70;;;;;;5038475;28;20045;-78
2020/12/04 09:10:25;;;;;;;5.45;4.22;;;7.90;96.70;;;;;;5041844;28;20033;-81
2020/12/04 09:12:55;;;;;;;8.00;5.43;;;7.90;96.70;;;;;;5037545;28;20142;-80
2020/12/04 09:15:25;;;;;;;6.65;5.13;;;7.90;96.70;;;;;;5040072;28;20040;-80
2020/12/04 09:17:53;;;;;;;7.10;5.88;;;8.00;96.70;;;;;;5039396;28;20037;-80
2020/12/04 09:20:22;;;;;;;8.30;6.13;;;8.10;96.70;;;;;;5038633;28;20052;-80
2020/12/04 09:22:50;;;;;;;7.25;5.88;;;8.10;96.70;;;;;;5027375;28;20406;-80
2020/12/04 09:25:19;;;;;;;7.20;5.50;;;8.10;96.70;;;;;;5042189;28;20052;-81
2020/12/04 09:27:49;;;;;;;8.15;5.82;;;8.20;96.70;;;;;;5055488;28;20051;-80
2020/12/04 09:30:18;;;;;;;8.02;5.97;;;8.20;96.70;;;;;;5039126;28;20033;-79
2020/12/04 09:32:48;;;;;;;7.68;5.57;;;8.20;96.70;;;;;;5040646;28;20220;-78
2020/12/04 09:35:17;;;;;;;7.38;5.30;;;8.30;96.70;;;;;;5037454;28;20037;-82
2020/12/04 09:37:45;;;;;;;6.63;5.10;;;8.40;96.70;;;;;;5041505;28;20085;-81
2020/12/04 09:40:14;;;;;;;6.70;4.90;;;8.40;96.70;;;;;;5039933;28;20041;-80
2020/12/04 09:42:42;;;;;;;6.97;5.03;;;8.50;96.70;;;;;;5054932;28;20568;-76
2020/12/04 09:45:12;;;;;;;10.57;7.47;;;8.60;96.70;;;;;;5023588;28;20091;-81
2020/12/04 09:47:40;;;;;;;9.60;5.55;;;8.60;96.70;;;;;;5039153;28;20500;-81
2020/12/04 09:50:10;;;;;;;8.10;5.65;;;8.60;96.70;;;;;;5038746;28;20037;-92
2020/12/04 09:52:39;;;;;;;8.88;7.10;;;8.60;96.70;;;;;;5041662;28;20048;-80
2020/12/04 09:55:08;;;;;;;8.27;5.90;;;8.60;96.70;;;;;;5062544;28;20051;-78
2020/12/04 09:57:36;;;;;;;7.68;5.97;;;8.70;96.70;;;;;;5055575;28;20670;-80
2020/12/04 10:00:05;;;;;;;8.13;6.53;;;8.70;96.70;;;;;;5037871;28;20044;-79
2020/12/04 10:02:33;;;;;;;7.07;5.70;;;8.60;96.70;;;;;;5037341;28;20041;-79
2020/12/04 10:05:01;;;;;;;8.15;5.93;;;8.60;96.70;;;;;;5038007;28;20660;-79
2020/12/04 10:07:28;;;;;;;7.85;5.78;;;8.60;96.70;;;;;;5038276;28;20992;-79
2020/12/04 10:09:56;;;;;;;8.13;5.82;;;8.60;96.70;;;;;;5056795;28;20068;-79
2020/12/04 10:12:24;;;;;;;11.07;6.68;;;8.70;96.70;;;;;;5037364;28;20051;-79
2020/12/04 10:14:52;;;;;;;8.70;6.60;;;8.70;96.70;;;;;;5038296;28;20094;-79
2020/12/04 10:17:20;;;;;;;9.75;6.65;;;8.70;96.70;;;;;;5038360;28;20099;-79
2020/12/04 10:19:47;;;;;;;8.75;6.57;;;8.80;96.70;;;;;;5037044;28;20053;-80
2020/12/04 10:22:15;;;;;;;6.35;4.75;;;8.80;96.70;;;;;;5044230;28;20041;-75
2020/12/04 10:24:42;;;;;;;6.25;4.60;;;8.90;96.70;;;;;;5039941;28;20041;-77
2020/12/04 10:27:10;;;;;;;7.30;4.75;;;9.00;96.70;;;;;;5027831;28;20136;-80
2020/12/04 10:29:38;;;;;;;6.05;3.00;;;9.00;96.70;;;;;;5042179;28;20679;-78
2020/12/04 10:32:05;;;;;;;4.68;2.83;;;9.10;96.70;;;;;;5041669;28;20442;-79
2020/12/04 10:34:33;;;;;;;5.90;3.50;;;9.10;96.70;;;;;;5040272;28;20577;-79
2020/12/04 10:37:00;;;;;;;3.40;2.53;;;9.10;96.70;;;;;;5024488;28;20077;-78
2020/12/04 10:39:28;;;;;;;3.97;2.65;;;9.20;96.70;;;;;;5041142;28;20455;-79
2020/12/04 10:41:56;;;;;;;4.43;3.08;;;9.20;96.70;;;;;;5038589;28;20532;-81
2020/12/04 10:44:24;;;;;;;4.93;2.90;;;9.30;96.70;;;;;;5032233;28;20382;-82
2020/12/04 10:46:52;;;;;;;5.63;3.22;;;9.30;96.70;;;;;;5055762;28;20521;-83
2020/12/04 10:49:19;;;;;;;5.63;3.55;;;9.40;96.70;;;;;;5026576;28;20037;-84
2020/12/04 10:51:56;;;;;;;3.30;2.90;;;9.50;96.70;;;;;;5024387;28;20147;-84
2020/12/04 10:54:24;;;;;;;3.70;2.63;;;9.50;96.70;;;;;;5040994;28;20115;-83
2020/12/04 10:56:54;;;;;;;3.70;3.05;;;9.50;96.70;;;;;;5024332;28;20033;-82
2020/12/04 10:59:22;;;;;;;4.13;2.35;;;9.60;96.70;;;;;;5058045;28;20124;-86
2020/12/04 11:02:06;;;;;;;4.18;2.60;;;9.60;96.70;;;;;;5027338;28;20486;-86
2020/12/04 11:07:11;;;;;;;4.20;2.33;;;9.70;96.70;;;;;;5041179;28;20041;-83
2020/12/04 11:09:58;;;;;;;4.75;3.15;;;9.70;96.70;;;;;;5049902;28;20053;-84
2020/12/04 11:12:25;;;;;;;4.32;2.67;;;9.80;96.70;;;;;;5039623;28;20036;-83
2020/12/04 11:14:53;;;;;;;4.15;2.63;;;9.90;96.70;;;;;;5042539;28;20041;-80
2020/12/04 11:17:21;;;;;;;4.15;3.03;;;9.90;96.70;;;;;;5040933;28;20037;-84
2020/12/04 11:19:48;;;;;;;4.70;2.40;;;9.90;96.70;;;;;;5044032;28;20497;-84
2020/12/04 11:22:16;;;;;;;3.42;2.40;;;10.00;96.70;;;;;;5041581;28;20037;-82
2020/12/04 11:24:43;;;;;;;3.42;2.30;;;10.00;96.70;;;;;;5043102;28;20049;-81
2020/12/04 11:27:12;;;;;;;10.30;3.45;;;10.00;96.70;;;;;;5040967;28;20037;-82
2020/12/04 11:29:40;;;;;;;3.55;2.13;;;10.00;96.70;;;;;;5027341;28;20045;-81
2020/12/04 11:32:07;;;;;;;4.43;2.47;;;10.10;96.70;;;;;;5024814;28;20075;-81
2020/12/04 11:34:36;;;;;;;4.38;2.70;;;10.10;96.70;;;;;;5042929;28;20045;-81
2020/12/04 11:37:08;;;;;;;6.03;3.10;;;10.10;96.70;;;;;;5041034;28;20071;-83
2020/12/04 11:39:39;;;;;;;6.53;3.38;;;10.10;96.70;;;;;;5038241;28;20154;-81
2020/12/04 11:42:07;;;;;;;3.00;2.58;;;10.20;96.70;;;;;;5041194;28;20052;-84
2020/12/04 11:44:36;;;;;;;6.07;2.83;;;10.20;96.70;;;;;;5042497;28;20033;-82
2020/12/04 11:47:03;;;;;;;3.97;2.70;;;10.20;96.70;;;;;;5038218;28;20277;-82
2020/12/04 11:49:31;;;;;;;5.13;2.88;;;10.30;96.70;;;;;;5040739;28;20391;-79
2020/12/04 11:52:00;;;;;;;7.93;3.80;;;10.30;96.70;;;;;;5040270;28;20036;-81
2020/12/04 11:54:28;;;;;;;4.03;3.08;;;10.50;96.70;;;;;;5039513;28;20041;-84
2020/12/04 11:56:55;;;;;;;2.85;2.03;;;10.60;96.70;;;;;;5039986;28;20037;-83
2020/12/04 11:59:23;;;;;;;3.83;1.92;;;10.70;96.70;;;;;;5057583;28;20128;-84
2020/12/04 12:01:50;;;;;;;4.60;2.22;;;10.70;96.70;;;;;;5055240;28;20820;-82
2020/12/04 12:04:18;;;;;;;4.38;2.45;;;10.80;96.70;;;;;;5036913;28;20071;-83
2020/12/04 12:06:46;;;;;;;6.00;2.28;;;10.90;96.70;;;;;;5053641;28;20041;-85
2020/12/04 12:09:14;;;;;;;4.00;1.95;;;11.00;96.70;;;;;;5052331;28;20091;-82
2020/12/04 12:11:42;;;;;;;5.05;2.05;;;11.00;96.70;;;;;;5039073;28;20582;-83
2020/12/04 12:14:09;;;;;;;2.72;1.85;;;11.00;96.70;;;;;;5038155;28;20546;-83
2020/12/04 12:16:37;;;;;;;3.45;2.03;;;11.00;96.70;;;;;;5038149;28;20053;-85
2020/12/04 12:19:04;;;;;;;4.35;2.67;;;11.00;96.70;;;;;;5017868;28;20438;-81
2020/12/04 12:21:33;;;;;;;4.22;2.30;;;11.00;96.70;;;;;;5053794;28;20055;-84
2020/12/04 12:24:00;;;;;;;3.35;2.13;;;11.00;96.70;;;;;;5043129;28;20056;-83
2020/12/04 12:26:28;;;;;;;4.40;2.40;;;11.10;96.70;;;;;;5056878;28;20499;-81
2020/12/04 12:28:56;;;;;;;2.83;2.10;;;11.10;96.70;;;;;;5038075;28;20410;-82
2020/12/04 12:31:23;;;;;;;3.60;2.10;;;11.10;96.70;;;;;;5039961;28;20116;-85
2020/12/04 12:33:51;;;;;;;5.20;3.22;;;11.10;96.70;;;;;;5025783;28;20567;-81
2020/12/04 12:36:19;;;;;;;5.25;3.40;;;11.10;96.70;;;;;;5039383;28;20047;-82
2020/12/04 12:38:47;;;;;;;7.65;4.22;;;11.10;96.70;;;;;;5037265;28;20037;-81
2020/12/04 12:41:15;;;;;;;5.00;3.70;;;11.20;96.70;;;;;;5054089;28;20040;-82
2020/12/04 12:43:44;;;;;;;5.80;3.67;;;11.20;96.70;;;;;;5018571;28;20092;-82
2020/12/04 12:46:12;;;;;;;6.40;4.30;;;11.20;96.70;;;;;;5025808;28;20045;-84
2020/12/04 12:48:40;;;;;;;7.30;4.15;;;11.20;96.70;;;;;;5024614;28;20045;-87
2020/12/04 12:51:07;;;;;;;6.15;3.47;;;11.20;96.70;;;;;;5039497;28;20041;-87
2020/12/04 12:53:35;;;;;;;5.43;3.72;;;11.30;96.70;;;;;;5042141;28;20037;-87
2020/12/04 12:56:02;;;;;;;4.90;3.22;;;11.30;96.70;;;;;;5042343;28;20873;-86
2020/12/04 12:58:30;;;;;;;4.30;2.78;;;11.30;96.70;;;;;;5053254;28;20036;-89
2020/12/04 13:00:59;;;;;;;7.40;2.50;;;11.40;96.70;;;;;;5057054;28;20045;-86
2020/12/04 13:03:26;;;;;;;4.03;1.80;;;11.40;96.70;;;;;;5056780;28;20120;-86
2020/12/04 13:05:54;;;;;;;5.13;2.53;;;11.40;96.70;;;;;;5026094;28;20049;-83
2020/12/04 13:08:44;;;;;;;3.28;2.00;;;11.40;96.70;;;;;;5020528;28;20052;-80
2020/12/04 13:11:11;;;;;;;6.07;2.53;;;11.40;96.70;;;;;;5039005;28;20045;-85
2020/12/04 13:13:39;;;;;;;4.97;2.80;;;11.40;96.70;;;;;;5038105;28;20047;-83
2020/12/04 13:16:08;;;;;;;4.20;2.70;;;11.50;96.70;;;;;;5042231;28;20041;-82